Loch Raven, Maryland
Current Conditions -  °F | °C
As of 2:45 PM on Friday 21 Nov 2014 (Local Time) from KMTN Reporting Station
Clear Clear  
Wind Chill: 28°   Ceiling: Unl
Heat Index: 37°   Visibility: 10mi
Dew Point: 10°   Wind: 16mph
Humidity: 33%   Direction: 280°W
Pressure: 30.46"   Gusts: NA
Location:  39.4157°N, 76.6096°W
Report Text: KMTN 211945Z 28014KT 10SM SKC 03/M12 A3046
Loading
Personal Weather Stations






























Interactive Weather Map New forecast layout! Learn more

10-Day Weather Forecast

Advertisements
Track Severe Weather on mobile